createdAt,value
2019-02-14T00:00:37.414Z,63.98
2019-02-14T00:01:42.802Z,58.85
2019-02-14T00:02:47.341Z,66.85
2019-02-14T00:03:51.916Z,65.52
2019-02-14T00:04:56.508Z,60.67
2019-02-14T00:06:01.117Z,62.40
2019-02-14T00:07:05.672Z,57.15
2019-02-14T00:08:10.228Z,62.55
2019-02-14T00:09:14.844Z,58.85
2019-02-14T00:10:19.396Z,63.70
2019-02-14T00:11:24.065Z,66.02
2019-02-14T00:12:28.655Z,59.23
2019-02-14T00:13:33.238Z,58.55
2019-02-14T00:14:37.827Z,65.03
2019-02-14T00:15:43.387Z,59.03
2019-02-14T00:16:47.980Z,65.72
2019-02-14T00:17:52.552Z,75.08
2019-02-14T00:18:57.131Z,62.78
2019-02-14T00:20:01.747Z,69.72
2019-02-14T00:21:06.323Z,67.95
2019-02-14T00:22:10.863Z,62.53
2019-02-14T00:23:15.433Z,66.77
2019-02-14T00:24:19.959Z,66.37
2019-02-14T00:25:24.511Z,76.60
2019-02-14T00:26:29.101Z,71.37
2019-02-14T00:27:33.647Z,68.00
2019-02-14T00:28:38.235Z,66.35
2019-02-14T00:29:42.862Z,69.22
2019-02-14T00:30:47.401Z,69.53
2019-02-14T00:31:52.099Z,64.30
2019-02-14T00:32:56.690Z,67.87
2019-02-14T00:34:01.280Z,72.92
2019-02-14T00:35:06.048Z,71.07
2019-02-14T00:36:10.605Z,68.75
2019-02-14T00:37:15.262Z,68.40
2019-02-14T00:38:19.823Z,64.03
2019-02-14T00:39:24.383Z,63.20
2019-02-14T00:40:29.095Z,67.22
2019-02-14T00:41:33.747Z,66.45
2019-02-14T00:42:38.428Z,62.67
2019-02-14T00:43:42.983Z,69.95
2019-02-14T00:44:47.532Z,65.35
2019-02-14T00:45:52.083Z,68.62
2019-02-14T00:46:56.715Z,60.88
2019-02-14T00:48:01.304Z,60.33
2019-02-14T00:49:05.875Z,64.75
2019-02-14T00:50:10.409Z,62.50
2019-02-14T00:51:15.022Z,62.75
2019-02-14T00:52:19.617Z,64.00
2019-02-14T00:53:24.279Z,68.80
2019-02-14T00:54:29.830Z,69.30
2019-02-14T00:55:34.413Z,67.92
2019-02-14T00:56:38.999Z,77.47
2019-02-14T00:57:43.557Z,60.20
2019-02-14T00:58:48.128Z,64.82
2019-02-14T00:59:52.673Z,65.83
2019-02-14T01:00:57.242Z,63.65
2019-02-14T01:02:01.847Z,65.55
2019-02-14T01:03:06.446Z,61.95
2019-02-14T01:04:11.051Z,63.17
2019-02-14T01:05:16.477Z,64.15
2019-02-14T01:06:21.219Z,66.75
2019-02-14T01:07:25.834Z,67.85
2019-02-14T01:08:31.385Z,66.28
2019-02-14T01:09:35.974Z,68.30
2019-02-14T01:10:40.614Z,67.65
2019-02-14T01:11:45.178Z,75.32
2019-02-14T01:12:49.753Z,72.62
2019-02-14T01:13:54.365Z,75.83
2019-02-14T01:14:59.053Z,83.10
2019-02-14T01:16:04.632Z,82.17
2019-02-14T01:17:09.281Z,77.17
2019-02-14T01:18:13.835Z,76.10
2019-02-14T01:19:18.432Z,67.32
2019-02-14T01:20:23.037Z,67.55
2019-02-14T01:21:27.635Z,73.20
2019-02-14T01:22:32.299Z,75.05
2019-02-14T01:23:36.942Z,72.32
2019-02-14T01:24:41.499Z,65.52
2019-02-14T01:25:46.092Z,73.07
2019-02-14T01:26:50.671Z,73.42
2019-02-14T01:27:55.244Z,71.47
2019-02-14T01:28:59.790Z,78.60
2019-02-14T01:30:04.699Z,68.65
2019-02-14T01:31:09.440Z,76.45
2019-02-14T01:32:14.971Z,75.12
2019-02-14T01:33:19.527Z,81.63
2019-02-14T01:34:24.094Z,70.57
2019-02-14T01:35:28.676Z,75.83
2019-02-14T01:36:33.315Z,67.22
2019-02-14T01:37:37.952Z,67.70
2019-02-14T01:38:42.510Z,66.30
2019-02-14T01:39:47.102Z,67.72
2019-02-14T01:40:51.697Z,74.53
2019-02-14T01:41:56.284Z,67.35
2019-02-14T01:43:00.870Z,67.45
2019-02-14T01:44:05.450Z,74.30
2019-02-14T01:45:10.593Z,63.08
2019-02-14T01:46:15.261Z,64.47
2019-02-14T01:47:19.878Z,65.20
2019-02-14T01:48:24.451Z,68.57
2019-02-14T01:49:29.014Z,59.98
2019-02-14T01:50:33.614Z,65.35
2019-02-14T01:51:38.188Z,60.92
2019-02-14T01:52:42.762Z,62.53
2019-02-14T01:53:47.352Z,66.10
2019-02-14T01:54:51.978Z,67.55
2019-02-14T01:55:56.847Z,64.72
2019-02-14T01:57:01.481Z,60.98
2019-02-14T01:58:06.124Z,55.12
2019-02-14T01:59:10.848Z,58.13
2019-02-14T02:00:15.836Z,55.88
2019-02-14T02:01:20.651Z,55.50
2019-02-14T02:02:25.240Z,62.67
2019-02-14T02:03:29.806Z,57.48
2019-02-14T02:04:34.451Z,53.52
2019-02-14T02:05:39.034Z,58.73
2019-02-14T02:06:43.846Z,58.45
2019-02-14T02:07:48.393Z,56.77
2019-02-14T02:08:53.097Z,60.05
2019-02-14T02:09:57.723Z,58.83
2019-02-14T02:11:02.591Z,56.77
2019-02-14T02:12:07.416Z,58.95
2019-02-14T02:13:12.104Z,54.20
2019-02-14T02:14:16.717Z,50.00
2019-02-14T02:15:21.280Z,62.58
2019-02-14T02:16:25.848Z,53.78
2019-02-14T02:17:30.407Z,51.77
2019-02-14T02:18:36.751Z,52.65
2019-02-14T02:19:41.332Z,56.35
2019-02-14T02:20:45.903Z,52.98
2019-02-14T02:21:50.507Z,52.70
2019-02-14T02:22:55.100Z,50.10
2019-02-14T02:23:59.679Z,54.35
2019-02-14T02:25:05.723Z,53.40
2019-02-14T02:26:10.301Z,45.08
2019-02-14T02:27:14.940Z,54.85
2019-02-14T02:28:19.568Z,60.88
2019-02-14T02:29:24.146Z,54.42
2019-02-14T02:30:28.737Z,49.38
2019-02-14T02:31:33.323Z,50.15
2019-02-14T02:32:37.939Z,50.65
2019-02-14T02:33:42.536Z,55.70
2019-02-14T02:34:47.096Z,55.10
2019-02-14T02:36:00.247Z,51.23
2019-02-14T02:36:57.984Z,46.85
2019-02-14T02:38:02.564Z,49.35
2019-02-14T02:39:08.105Z,56.68
2019-02-14T02:40:12.655Z,57.62
2019-02-14T02:41:17.198Z,50.50
2019-02-14T02:42:22.118Z,48.70
2019-02-14T02:43:26.871Z,51.75
2019-02-14T02:44:31.474Z,54.45
2019-02-14T02:45:36.010Z,52.10
2019-02-14T02:46:40.603Z,44.38
2019-02-14T02:47:45.159Z,53.70
2019-02-14T02:48:49.711Z,54.18
2019-02-14T02:49:54.303Z,53.58
2019-02-14T02:50:58.854Z,48.98
2019-02-14T02:52:03.416Z,48.63
2019-02-14T02:53:07.988Z,46.88
2019-02-14T02:54:12.573Z,49.08
2019-02-14T02:55:17.144Z,50.17
2019-02-14T02:56:21.686Z,46.10
2019-02-14T02:57:26.267Z,47.40
2019-02-14T02:58:30.872Z,46.10
2019-02-14T02:59:35.395Z,48.65
2019-02-14T03:00:40.008Z,48.73
2019-02-14T03:01:44.623Z,46.37
2019-02-14T03:02:49.192Z,50.25
2019-02-14T03:03:53.748Z,46.60
2019-02-14T03:04:58.309Z,44.95
2019-02-14T03:06:10.206Z,45.23
2019-02-14T03:07:09.521Z,55.28
2019-02-14T03:08:14.130Z,48.68
2019-02-14T03:09:19.672Z,45.60
2019-02-14T03:10:24.232Z,48.45
2019-02-14T03:11:28.812Z,47.73
2019-02-14T03:12:33.373Z,42.38
2019-02-14T03:13:37.937Z,51.88
2019-02-14T03:14:42.487Z,45.08
2019-02-14T03:15:47.151Z,42.48
2019-02-14T03:16:51.707Z,46.18
2019-02-14T03:17:56.275Z,42.45
2019-02-14T03:19:00.873Z,45.60
2019-02-14T03:20:06.633Z,45.55
2019-02-14T03:21:11.261Z,41.35
2019-02-14T03:22:15.805Z,43.95
2019-02-14T03:23:20.355Z,43.85
2019-02-14T03:24:24.931Z,44.05
2019-02-14T03:25:29.530Z,41.05
2019-02-14T03:26:34.103Z,48.28
2019-02-14T03:27:38.694Z,50.65
2019-02-14T03:28:43.270Z,39.23
2019-02-14T03:29:47.857Z,47.73
2019-02-14T03:30:52.482Z,40.85
2019-02-14T03:31:57.102Z,49.80
2019-02-14T03:33:01.847Z,44.65
2019-02-14T03:34:06.435Z,42.67
2019-02-14T03:35:11.074Z,42.00
2019-02-14T03:36:19.151Z,43.95
2019-02-14T03:37:21.899Z,42.67
2019-02-14T03:38:26.448Z,40.17
2019-02-14T03:39:31.001Z,37.58
2019-02-14T03:40:35.609Z,39.67
2019-02-14T03:41:40.187Z,41.08
2019-02-14T03:42:44.795Z,39.80
2019-02-14T03:43:49.359Z,38.08
2019-02-14T03:44:53.903Z,41.77
2019-02-14T03:45:59.457Z,39.45
2019-02-14T03:47:04.085Z,47.45
2019-02-14T03:48:08.768Z,37.00
2019-02-14T03:49:13.335Z,38.88
2019-02-14T03:50:17.922Z,42.45
2019-02-14T03:51:22.443Z,51.15
2019-02-14T03:52:27.026Z,38.38
2019-02-14T03:53:31.635Z,37.55
2019-02-14T03:54:36.200Z,34.58
2019-02-14T03:55:40.752Z,38.00
2019-02-14T03:56:45.314Z,38.20
2019-02-14T03:57:49.898Z,31.68
2019-02-14T03:58:54.465Z,39.33
2019-02-14T03:59:59.025Z,33.33
2019-02-14T04:01:03.592Z,32.23
2019-02-14T04:02:08.313Z,31.37
2019-02-14T04:03:12.931Z,41.30
2019-02-14T04:04:17.504Z,34.60
2019-02-14T04:05:22.099Z,36.75
2019-02-14T04:06:27.714Z,34.75
2019-02-14T04:07:33.441Z,31.10
2019-02-14T04:08:38.058Z,27.15
2019-02-14T04:09:42.659Z,35.20
2019-02-14T04:10:47.203Z,35.45
2019-02-14T04:11:51.775Z,35.13
2019-02-14T04:12:56.338Z,34.40
2019-02-14T04:14:00.899Z,31.40
2019-02-14T04:15:06.379Z,29.87
2019-02-14T04:16:10.970Z,33.42
2019-02-14T04:17:15.555Z,39.53
2019-02-14T04:18:20.129Z,32.10
2019-02-14T04:19:24.675Z,31.42
2019-02-14T04:20:29.362Z,34.43
2019-02-14T04:21:33.899Z,41.77
2019-02-14T04:22:38.476Z,33.63
2019-02-14T04:23:43.073Z,31.45
2019-02-14T04:24:47.664Z,29.15
2019-02-14T04:25:52.248Z,33.38
2019-02-14T04:26:57.031Z,34.75
2019-02-14T04:28:02.607Z,36.90
2019-02-14T04:29:07.265Z,27.00
2019-02-14T04:30:12.048Z,31.37
2019-02-14T04:31:16.707Z,30.72
2019-02-14T04:32:21.380Z,32.80
2019-02-14T04:33:25.971Z,35.92
2019-02-14T04:34:31.021Z,32.93
2019-02-14T04:35:35.681Z,32.45
2019-02-14T04:36:40.285Z,28.50
2019-02-14T04:37:44.920Z,33.83
2019-02-14T04:38:49.525Z,29.98
2019-02-14T04:39:57.028Z,33.25
2019-02-14T04:41:02.143Z,31.27
2019-02-14T04:42:07.151Z,33.50
2019-02-14T04:43:12.240Z,27.30
2019-02-14T04:44:17.331Z,30.32
2019-02-14T04:45:22.322Z,30.37
2019-02-14T04:46:26.875Z,30.82
2019-02-14T04:47:32.323Z,26.73
2019-02-14T04:48:36.893Z,29.92
2019-02-14T04:49:42.057Z,28.02
2019-02-14T04:50:48.264Z,26.97
2019-02-14T04:51:54.019Z,27.52
2019-02-14T04:52:58.626Z,28.12
2019-02-14T04:54:03.201Z,27.42
2019-02-14T04:55:08.591Z,29.02
2019-02-14T04:56:13.549Z,29.05
2019-02-14T04:57:18.156Z,36.25
2019-02-14T04:58:22.778Z,26.50
2019-02-14T04:59:27.500Z,31.85
2019-02-14T05:00:32.883Z,29.12
2019-02-14T05:01:37.462Z,29.90
2019-02-14T05:02:42.076Z,30.02
2019-02-14T05:03:46.723Z,25.08
2019-02-14T05:04:51.297Z,32.33
2019-02-14T05:05:55.925Z,28.32
2019-02-14T05:07:00.623Z,26.45
2019-02-14T05:08:05.187Z,28.62
2019-02-14T05:09:10.559Z,32.85
2019-02-14T05:10:15.670Z,27.45
2019-02-14T05:11:20.374Z,28.17
2019-02-14T05:12:26.254Z,24.18
2019-02-14T05:13:31.337Z,28.25
2019-02-14T05:14:35.889Z,26.62
2019-02-14T05:15:40.460Z,28.17
2019-02-14T05:16:44.991Z,31.33
2019-02-14T05:17:49.572Z,30.77
2019-02-14T05:18:54.711Z,32.13
2019-02-14T05:19:59.613Z,28.67
2019-02-14T05:21:05.088Z,29.60
2019-02-14T05:22:10.226Z,31.82
2019-02-14T05:23:15.004Z,30.43
2019-02-14T05:24:21.929Z,33.60
2019-02-14T05:25:26.748Z,34.73
2019-02-14T05:26:32.382Z,33.02
2019-02-14T05:27:38.839Z,28.77
2019-02-14T05:28:46.809Z,29.07
2019-02-14T05:29:52.016Z,29.48
2019-02-14T05:30:57.005Z,31.25
2019-02-14T05:32:01.912Z,31.27
2019-02-14T05:33:07.032Z,23.85
2019-02-14T05:34:11.726Z,33.30
2019-02-14T05:35:16.607Z,27.85
2019-02-14T05:36:22.874Z,29.95
2019-02-14T05:37:27.435Z,30.48
2019-02-14T05:38:32.101Z,32.33
2019-02-14T05:39:37.209Z,29.10
2019-02-14T05:40:41.840Z,30.95
2019-02-14T05:41:46.507Z,30.95
2019-02-14T05:42:51.300Z,30.75
2019-02-14T05:43:56.445Z,32.38
2019-02-14T05:45:01.490Z,32.95
2019-02-14T05:46:10.481Z,35.05
2019-02-14T05:47:17.065Z,29.55
2019-02-14T05:48:21.760Z,32.13
2019-02-14T05:49:26.371Z,30.60
2019-02-14T05:50:30.925Z,30.08
2019-02-14T05:51:35.511Z,30.25
2019-02-14T05:52:40.066Z,36.68
2019-02-14T05:53:44.655Z,35.17
2019-02-14T05:54:49.857Z,32.03
2019-02-14T05:55:55.608Z,40.60
2019-02-14T05:57:00.392Z,32.15
2019-02-14T05:58:05.001Z,33.53
2019-02-14T05:59:09.607Z,33.55
2019-02-14T06:00:14.640Z,35.90
2019-02-14T06:01:19.611Z,34.10
2019-02-14T06:02:24.188Z,34.27
2019-02-14T06:03:28.855Z,33.60
2019-02-14T06:04:33.450Z,32.30
2019-02-14T06:05:38.233Z,34.15
2019-02-14T06:06:42.879Z,32.70
2019-02-14T06:07:47.447Z,31.87
2019-02-14T06:08:52.124Z,36.35
2019-02-14T06:09:56.730Z,32.23
2019-02-14T06:11:01.386Z,32.08
2019-02-14T06:12:05.935Z,31.95
2019-02-14T06:13:10.579Z,32.23
2019-02-14T06:14:15.130Z,33.70
2019-02-14T06:15:19.695Z,34.27
2019-02-14T06:16:24.254Z,27.58
2019-02-14T06:17:28.839Z,30.08
2019-02-14T06:18:33.506Z,33.60
2019-02-14T06:19:38.152Z,37.65
2019-02-14T06:20:42.777Z,38.30
2019-02-14T06:21:47.409Z,31.27
2019-02-14T06:22:52.083Z,33.98
2019-02-14T06:23:57.690Z,30.92
2019-02-14T06:25:02.634Z,37.17
2019-02-14T06:26:07.651Z,32.70
2019-02-14T06:27:12.306Z,31.50
2019-02-14T06:28:16.903Z,28.75
2019-02-14T06:29:21.501Z,36.30
2019-02-14T06:30:26.052Z,35.23
2019-02-14T06:31:30.730Z,32.53
2019-02-14T06:32:35.332Z,34.27
2019-02-14T06:33:39.882Z,34.58
2019-02-14T06:34:44.491Z,29.57
2019-02-14T06:35:49.069Z,33.08
2019-02-14T06:36:53.629Z,33.78
2019-02-14T06:37:58.192Z,35.50
2019-02-14T06:39:03.152Z,35.43
2019-02-14T06:40:09.191Z,34.78
2019-02-14T06:41:13.744Z,34.75
2019-02-14T06:42:18.382Z,33.20
2019-02-14T06:43:23.032Z,35.50
2019-02-14T06:44:27.628Z,40.67
2019-02-14T06:45:32.294Z,39.40
2019-02-14T06:46:37.013Z,33.10
2019-02-14T06:47:41.562Z,32.33
2019-02-14T06:48:46.111Z,31.48
2019-02-14T06:49:50.923Z,32.30
2019-02-14T06:50:55.605Z,28.50
2019-02-14T06:52:00.160Z,33.00
2019-02-14T06:53:04.735Z,32.15
2019-02-14T06:54:12.223Z,33.98
2019-02-14T06:55:16.802Z,34.18
2019-02-14T06:56:21.379Z,36.70
2019-02-14T06:57:25.946Z,30.23
2019-02-14T06:58:30.700Z,30.62
2019-02-14T06:59:35.226Z,31.35
2019-02-14T07:00:39.812Z,37.65
2019-02-14T07:01:44.430Z,31.62
2019-02-14T07:02:48.997Z,35.92
2019-02-14T07:03:53.533Z,31.50
2019-02-14T07:04:58.064Z,34.48
2019-02-14T07:06:02.635Z,31.65
2019-02-14T07:07:07.224Z,31.60
2019-02-14T07:08:11.865Z,36.23
2019-02-14T07:09:16.854Z,40.05
2019-02-14T07:10:21.398Z,37.70
2019-02-14T07:11:25.931Z,35.63
2019-02-14T07:12:30.531Z,31.12
2019-02-14T07:13:35.113Z,34.80
2019-02-14T07:14:39.715Z,31.40
2019-02-14T07:15:44.288Z,37.23
2019-02-14T07:16:48.843Z,35.85
2019-02-14T07:17:53.454Z,32.75
2019-02-14T07:18:58.022Z,37.35
2019-02-14T07:20:02.595Z,35.65
2019-02-14T07:21:07.156Z,30.75
2019-02-14T07:22:11.737Z,38.88
2019-02-14T07:23:16.312Z,32.78
2019-02-14T07:24:21.843Z,28.83
2019-02-14T07:25:26.406Z,34.92
2019-02-14T07:26:31.196Z,32.60
2019-02-14T07:27:35.869Z,33.67
2019-02-14T07:28:40.414Z,33.20
2019-02-14T07:29:45.023Z,31.15
2019-02-14T07:30:49.147Z,32.60
2019-02-14T07:31:53.686Z,35.30
2019-02-14T07:32:58.346Z,35.25
2019-02-14T07:34:04.073Z,36.48
2019-02-14T07:35:09.671Z,41.58
2019-02-14T07:36:14.298Z,43.25
2019-02-14T07:37:26.416Z,34.58
2019-02-14T07:38:25.136Z,31.48
2019-02-14T07:39:29.737Z,32.23
2019-02-14T07:40:34.468Z,36.05
2019-02-14T07:41:39.104Z,36.10
2019-02-14T07:42:43.735Z,29.35
2019-02-14T07:43:48.330Z,34.88
2019-02-14T07:44:52.956Z,38.13
2019-02-14T07:45:57.519Z,35.23
2019-02-14T07:47:02.159Z,39.25
2019-02-14T07:48:06.797Z,36.75
2019-02-14T07:49:11.374Z,29.77
2019-02-14T07:50:15.952Z,31.40
2019-02-14T07:51:20.602Z,35.55
2019-02-14T07:52:25.514Z,33.85
2019-02-14T07:53:30.182Z,32.85
2019-02-14T07:54:34.714Z,32.60
2019-02-14T07:55:39.308Z,34.33
2019-02-14T07:56:43.884Z,28.70
2019-02-14T07:57:48.473Z,33.60
2019-02-14T07:58:53.051Z,32.28
2019-02-14T07:59:57.653Z,36.45
2019-02-14T08:01:02.327Z,32.08
2019-02-14T08:02:06.916Z,36.38
2019-02-14T08:03:11.616Z,35.10
2019-02-14T08:04:16.173Z,31.48
2019-02-14T08:05:20.841Z,34.92
2019-02-14T08:06:25.411Z,33.88
2019-02-14T08:07:35.692Z,36.42
2019-02-14T08:08:36.477Z,35.90
2019-02-14T08:09:41.198Z,31.62
2019-02-14T08:10:45.859Z,28.45
2019-02-14T08:11:50.451Z,35.52
2019-02-14T08:12:55.173Z,32.03
2019-02-14T08:13:59.933Z,39.45
2019-02-14T08:15:05.265Z,38.45
2019-02-14T08:16:09.830Z,34.55
2019-02-14T08:17:14.393Z,36.33
2019-02-14T08:18:19.009Z,36.50
2019-02-14T08:19:23.570Z,36.25
2019-02-14T08:20:28.124Z,40.33
2019-02-14T08:21:32.802Z,29.90
2019-02-14T08:22:37.477Z,34.18
2019-02-14T08:23:42.057Z,30.52
2019-02-14T08:24:46.741Z,29.82
2019-02-14T08:25:51.537Z,37.13
2019-02-14T08:26:56.201Z,32.60
2019-02-14T08:28:00.850Z,41.77
2019-02-14T08:29:05.478Z,33.50
2019-02-14T08:30:12.227Z,37.28
2019-02-14T08:31:16.862Z,42.95
2019-02-14T08:32:21.504Z,35.58
2019-02-14T08:33:26.080Z,34.40
2019-02-14T08:34:30.635Z,38.40
2019-02-14T08:35:35.235Z,38.67
2019-02-14T08:36:39.827Z,39.13
2019-02-14T08:37:45.850Z,37.08
2019-02-14T08:38:50.854Z,31.17
2019-02-14T08:39:55.558Z,40.33
2019-02-14T08:41:00.163Z,36.28
2019-02-14T08:42:04.727Z,36.75
2019-02-14T08:43:09.343Z,34.23
2019-02-14T08:44:13.959Z,36.85
2019-02-14T08:45:19.049Z,30.32
2019-02-14T08:46:23.774Z,44.50
2019-02-14T08:47:28.514Z,55.28
2019-02-14T08:48:33.250Z,55.38
2019-02-14T08:49:37.799Z,44.73
2019-02-14T08:50:42.643Z,37.42
2019-02-14T08:51:47.315Z,31.50
2019-02-14T08:52:51.930Z,36.05
2019-02-14T08:53:56.729Z,33.50
2019-02-14T08:55:01.344Z,55.55
2019-02-14T08:56:05.874Z,32.00
2019-02-14T08:57:10.434Z,36.55
2019-02-14T08:58:15.001Z,38.58
2019-02-14T08:59:20.509Z,41.88
2019-02-14T09:00:25.247Z,36.63
2019-02-14T09:01:29.833Z,31.55
2019-02-14T09:02:34.602Z,37.90
2019-02-14T09:03:39.360Z,30.52
2019-02-14T09:04:44.122Z,35.03
2019-02-14T09:05:48.866Z,33.58
2019-02-14T09:06:53.452Z,35.88
2019-02-14T09:07:58.035Z,38.42
2019-02-14T09:09:03.389Z,39.13
2019-02-14T09:10:10.686Z,49.13
2019-02-14T09:11:17.965Z,30.25
2019-02-14T09:12:25.731Z,35.70
2019-02-14T09:13:30.310Z,34.85
2019-02-14T09:14:34.897Z,36.42
2019-02-14T09:15:39.440Z,31.17
2019-02-14T09:16:44.096Z,28.32
2019-02-14T09:17:49.619Z,37.78
2019-02-14T09:18:54.197Z,30.43
2019-02-14T09:19:58.758Z,37.83
2019-02-14T09:21:03.333Z,27.10
2019-02-14T09:22:07.963Z,38.58
2019-02-14T09:23:14.585Z,34.55
2019-02-14T09:24:18.850Z,33.20
2019-02-14T09:25:23.415Z,28.45
2019-02-14T09:26:28.131Z,31.05
2019-02-14T09:27:32.724Z,35.30
2019-02-14T09:28:37.335Z,31.02
2019-02-14T09:29:41.926Z,35.52
2019-02-14T09:30:46.611Z,36.83
2019-02-14T09:31:55.515Z,27.35
2019-02-14T09:33:00.334Z,30.60
2019-02-14T09:34:06.070Z,39.40
2019-02-14T09:35:18.778Z,37.75
2019-02-14T09:36:34.392Z,36.80
2019-02-14T09:37:41.493Z,29.63
2019-02-14T09:38:46.118Z,39.90
2019-02-14T09:39:50.704Z,34.53
2019-02-14T09:40:55.395Z,29.55
2019-02-14T09:41:59.965Z,33.78
2019-02-14T09:43:04.665Z,32.25
2019-02-14T09:44:09.248Z,30.17
2019-02-14T09:45:14.040Z,31.25
2019-02-14T09:46:18.602Z,30.75
2019-02-14T09:47:23.188Z,34.18
2019-02-14T09:48:27.928Z,36.30
2019-02-14T09:49:32.499Z,33.63
2019-02-14T09:50:37.056Z,48.42
2019-02-14T09:51:41.588Z,29.70
2019-02-14T09:52:46.124Z,34.38
2019-02-14T09:53:50.686Z,27.58
2019-02-14T09:54:55.248Z,30.02
2019-02-14T09:55:59.940Z,29.98
2019-02-14T09:57:04.520Z,32.93
2019-02-14T09:58:09.371Z,29.32
2019-02-14T09:59:14.028Z,32.78
2019-02-14T10:00:18.679Z,35.78
2019-02-14T10:01:23.327Z,29.63
2019-02-14T10:02:27.913Z,33.33
2019-02-14T10:03:32.485Z,31.20
2019-02-14T10:04:37.139Z,30.30
2019-02-14T10:05:41.690Z,31.73
2019-02-14T10:06:46.323Z,36.65
2019-02-14T10:07:50.908Z,37.63
2019-02-14T10:08:55.658Z,27.25
2019-02-14T10:10:00.345Z,24.75
2019-02-14T10:11:04.887Z,28.38
2019-02-14T10:12:09.475Z,26.20
2019-02-14T10:13:14.013Z,36.95
2019-02-14T10:14:18.713Z,26.10
2019-02-14T10:15:23.347Z,28.23
2019-02-14T10:16:28.023Z,28.45
2019-02-14T10:17:32.636Z,28.20
2019-02-14T10:18:37.271Z,30.85
2019-02-14T10:19:41.800Z,30.25
2019-02-14T10:20:46.379Z,28.52
2019-02-14T10:21:51.377Z,37.10
2019-02-14T10:22:56.026Z,28.75
2019-02-14T10:24:00.579Z,24.72
2019-02-14T10:25:05.330Z,27.20
2019-02-14T10:26:10.054Z,25.48
2019-02-14T10:27:14.614Z,28.02
2019-02-14T10:28:19.232Z,28.38
2019-02-14T10:29:23.790Z,26.07
2019-02-14T10:30:28.395Z,28.62
2019-02-14T10:31:32.949Z,24.37
2019-02-14T10:32:37.530Z,27.40
2019-02-14T10:33:42.144Z,23.60
2019-02-14T10:34:46.763Z,27.15
2019-02-14T10:35:51.322Z,26.80
2019-02-14T10:36:55.849Z,25.65
2019-02-14T10:38:00.458Z,26.30
2019-02-14T10:39:05.717Z,27.02
2019-02-14T10:40:11.225Z,24.63
2019-02-14T10:41:15.788Z,27.77
2019-02-14T10:42:20.339Z,26.27
2019-02-14T10:43:24.910Z,22.87
2019-02-14T10:44:29.893Z,19.75
2019-02-14T10:45:34.514Z,23.75
2019-02-14T10:46:39.064Z,20.27
2019-02-14T10:47:43.712Z,22.65
2019-02-14T10:48:48.319Z,20.15
2019-02-14T10:49:52.891Z,21.37
2019-02-14T10:50:57.521Z,17.75
2019-02-14T10:52:02.080Z,21.97
2019-02-14T10:53:06.655Z,22.70
2019-02-14T10:54:11.203Z,22.45
2019-02-14T10:55:16.147Z,20.27
2019-02-14T10:56:20.741Z,25.68
2019-02-14T10:57:25.308Z,19.10
2019-02-14T10:58:29.888Z,20.23
2019-02-14T10:59:34.516Z,20.12
2019-02-14T11:00:39.959Z,18.10
2019-02-14T11:01:44.568Z,19.25
2019-02-14T11:02:50.703Z,19.87
2019-02-14T11:03:58.938Z,18.60
2019-02-14T11:05:06.309Z,20.90
2019-02-14T11:06:12.251Z,20.62
2019-02-14T11:07:17.283Z,19.73
2019-02-14T11:08:31.407Z,16.90
2019-02-14T11:09:32.066Z,17.98
2019-02-14T11:10:39.982Z,15.70
2019-02-14T11:11:45.135Z,20.32
2019-02-14T11:12:50.212Z,15.55
2019-02-14T11:13:58.707Z,19.32
2019-02-14T11:15:04.925Z,25.27
2019-02-14T11:16:10.239Z,19.90
2019-02-14T11:17:15.318Z,18.90
2019-02-14T11:18:20.750Z,16.60
2019-02-14T11:19:25.310Z,20.32
2019-02-14T11:20:29.918Z,18.65
2019-02-14T11:21:34.587Z,17.85
2019-02-14T11:22:40.147Z,23.62
2019-02-14T11:23:44.708Z,15.70
2019-02-14T11:24:49.322Z,16.60
2019-02-14T11:25:53.975Z,16.77
2019-02-14T11:26:58.632Z,14.33
2019-02-14T11:28:03.342Z,12.82
2019-02-14T11:29:08.141Z,20.60
2019-02-14T11:30:13.101Z,15.23
2019-02-14T11:31:17.689Z,19.00
2019-02-14T11:32:22.396Z,15.50
2019-02-14T11:33:27.180Z,22.62
2019-02-14T11:34:31.774Z,17.17
2019-02-14T11:35:36.359Z,15.10
2019-02-14T11:36:41.026Z,17.42
2019-02-14T11:37:45.621Z,17.17
2019-02-14T11:38:50.313Z,23.15
2019-02-14T11:39:54.911Z,18.70
2019-02-14T11:40:59.506Z,17.75
2019-02-14T11:42:04.080Z,16.05
2019-02-14T11:43:08.745Z,18.30
2019-02-14T11:44:13.834Z,16.15
2019-02-14T11:45:19.387Z,16.93
2019-02-14T11:46:27.713Z,22.55
2019-02-14T11:47:32.991Z,21.77
2019-02-14T11:48:41.457Z,19.90
2019-02-14T11:49:46.869Z,20.50
2019-02-14T11:50:51.517Z,19.23
2019-02-14T11:51:57.463Z,20.12
2019-02-14T11:53:02.163Z,21.73
2019-02-14T11:54:07.785Z,16.82
2019-02-14T11:55:12.458Z,19.80
2019-02-14T11:56:17.069Z,17.95
2019-02-14T11:57:21.865Z,18.90
2019-02-14T11:58:26.479Z,17.25
2019-02-14T11:59:31.149Z,15.88
2019-02-14T12:00:35.834Z,23.12
2019-02-14T12:01:40.653Z,22.00
2019-02-14T12:02:45.285Z,21.33
2019-02-14T12:03:49.893Z,18.25
2019-02-14T12:04:54.529Z,18.27
2019-02-14T12:05:59.173Z,17.75
2019-02-14T12:07:03.806Z,18.67
2019-02-14T12:08:09.579Z,18.67
2019-02-14T12:09:14.245Z,16.67
2019-02-14T12:10:19.304Z,23.70
2019-02-14T12:11:23.868Z,17.48
2019-02-14T12:12:28.456Z,18.95
2019-02-14T12:13:33.014Z,17.23
2019-02-14T12:14:37.606Z,18.35
2019-02-14T12:15:42.180Z,17.73
2019-02-14T12:16:46.787Z,21.05
2019-02-14T12:17:52.999Z,19.12
2019-02-14T12:18:57.576Z,20.32
2019-02-14T12:20:02.313Z,19.62
2019-02-14T12:21:06.948Z,21.10
2019-02-14T12:22:11.560Z,17.20
2019-02-14T12:23:17.123Z,20.00
2019-02-14T12:24:21.796Z,21.12
2019-02-14T12:25:26.406Z,15.83
2019-02-14T12:26:30.978Z,18.57
2019-02-14T12:27:35.593Z,18.82
2019-02-14T12:28:40.268Z,17.35
2019-02-14T12:29:44.840Z,22.60
2019-02-14T12:30:49.468Z,25.75
2019-02-14T12:31:54.149Z,19.80
2019-02-14T12:32:58.775Z,19.87
2019-02-14T12:34:03.518Z,19.80
2019-02-14T12:35:08.203Z,19.55
2019-02-14T12:36:13.732Z,24.15
2019-02-14T12:37:18.559Z,22.55
2019-02-14T12:38:23.267Z,25.77
2019-02-14T12:39:27.897Z,24.70
2019-02-14T12:40:32.621Z,21.52
2019-02-14T12:41:37.221Z,19.52
2019-02-14T12:42:41.884Z,19.32
2019-02-14T12:43:46.541Z,22.13
2019-02-14T12:44:51.351Z,22.07
2019-02-14T12:45:55.987Z,28.77
2019-02-14T12:47:00.544Z,21.68
2019-02-14T12:48:05.247Z,20.57
2019-02-14T12:49:09.868Z,21.80
2019-02-14T12:50:14.581Z,19.77
2019-02-14T12:51:19.260Z,24.43
2019-02-14T12:52:23.998Z,20.35
2019-02-14T12:53:28.792Z,25.48
2019-02-14T12:54:33.410Z,19.70
2019-02-14T12:55:38.004Z,22.13
2019-02-14T12:56:42.760Z,21.48
2019-02-14T12:57:48.378Z,21.05
2019-02-14T12:58:53.081Z,20.23
2019-02-14T12:59:57.671Z,21.35
2019-02-14T13:01:02.309Z,27.45
2019-02-14T13:02:07.044Z,16.35
2019-02-14T13:03:11.692Z,18.85
2019-02-14T13:04:16.247Z,18.77
2019-02-14T13:05:20.890Z,21.93
2019-02-14T13:06:25.556Z,26.95
2019-02-14T13:07:30.122Z,25.80
2019-02-14T13:08:34.723Z,23.85
2019-02-14T13:09:39.364Z,21.68
2019-02-14T13:10:43.960Z,27.60
2019-02-14T13:11:48.577Z,20.17
2019-02-14T13:12:53.308Z,23.65
2019-02-14T13:13:57.925Z,27.07
2019-02-14T13:15:02.541Z,26.35
2019-02-14T13:16:08.123Z,24.20
2019-02-14T13:17:12.942Z,23.77
2019-02-14T13:18:17.619Z,27.32
2019-02-14T13:19:22.188Z,28.10
2019-02-14T13:20:26.860Z,21.33
2019-02-14T13:21:31.575Z,24.63
2019-02-14T13:22:36.318Z,23.98
2019-02-14T13:23:40.849Z,23.00
2019-02-14T13:24:45.522Z,24.25
2019-02-14T13:25:50.456Z,25.97
2019-02-14T13:26:55.411Z,21.87
2019-02-14T13:28:00.130Z,25.08
2019-02-14T13:29:04.952Z,24.55
2019-02-14T13:30:12.548Z,27.45
2019-02-14T13:31:17.191Z,23.77
2019-02-14T13:32:21.788Z,28.15
2019-02-14T13:33:26.437Z,24.55
2019-02-14T13:34:31.046Z,23.87
2019-02-14T13:35:35.818Z,26.23
2019-02-14T13:36:40.851Z,22.02
2019-02-14T13:37:45.641Z,26.80
2019-02-14T13:38:50.252Z,22.98
2019-02-14T13:39:56.027Z,26.23
2019-02-14T13:41:00.641Z,24.60
2019-02-14T13:42:05.308Z,24.20
2019-02-14T13:43:10.543Z,24.05
2019-02-14T13:44:18.007Z,27.67
2019-02-14T13:45:23.159Z,26.93
2019-02-14T13:46:27.725Z,24.10
2019-02-14T13:47:32.380Z,26.17
2019-02-14T13:48:37.019Z,25.77
2019-02-14T13:49:41.693Z,23.90
2019-02-14T13:50:46.283Z,26.00
2019-02-14T13:51:50.937Z,29.55
2019-02-14T13:52:55.524Z,23.80
2019-02-14T13:54:00.098Z,24.63
2019-02-14T13:55:05.449Z,26.37